createdAt,value
2019-06-10T00:00:43.626Z,16.11
2019-06-10T00:03:11.508Z,16.05
2019-06-10T00:05:37.428Z,16.06
2019-06-10T00:08:04.257Z,16.01
2019-06-10T00:10:31.199Z,16.05
2019-06-10T00:12:57.311Z,16.06
2019-06-10T00:15:23.185Z,16.01
2019-06-10T00:17:59.323Z,15.97
2019-06-10T00:20:16.809Z,15.96
2019-06-10T00:22:42.660Z,16.01
2019-06-10T00:25:08.714Z,15.95
2019-06-10T00:27:34.571Z,15.86
2019-06-10T00:30:02.925Z,15.84
2019-06-10T00:32:28.207Z,15.83
2019-06-10T00:34:54.086Z,15.81
2019-06-10T00:37:21.240Z,15.83
2019-06-10T00:39:47.212Z,15.80
2019-06-10T00:42:15.045Z,15.84
2019-06-10T00:44:41.625Z,15.77
2019-06-10T00:47:09.271Z,15.69
2019-06-10T00:49:35.381Z,15.76
2019-06-10T00:52:03.040Z,15.75
2019-06-10T00:54:31.259Z,15.72
2019-06-10T00:56:56.857Z,15.70
2019-06-10T00:59:22.795Z,15.59
2019-06-10T01:01:50.927Z,15.61
2019-06-10T01:04:16.681Z,15.61
2019-06-10T01:06:42.625Z,15.56
2019-06-10T01:09:08.801Z,15.59
2019-06-10T01:11:36.274Z,15.61
2019-06-10T01:14:03.070Z,15.59
2019-06-10T01:16:28.989Z,15.53
2019-06-10T01:18:54.864Z,15.49
2019-06-10T01:21:21.815Z,15.46
2019-06-10T01:23:47.981Z,15.44
2019-06-10T01:26:16.287Z,15.42
2019-06-10T01:28:41.637Z,15.40
2019-06-10T01:31:10.054Z,15.42
2019-06-10T01:33:35.260Z,15.40
2019-06-10T01:36:01.129Z,15.30
2019-06-10T01:38:27.017Z,15.39
2019-06-10T01:40:52.879Z,15.44
2019-06-10T01:43:21.223Z,15.42
2019-06-10T01:45:46.497Z,15.38
2019-06-10T01:48:14.725Z,15.37
2019-06-10T01:50:40.697Z,15.32
2019-06-10T01:53:07.312Z,15.31
2019-06-10T01:55:33.287Z,15.30
2019-06-10T01:58:00.863Z,15.28
2019-06-10T02:00:31.326Z,15.26
2019-06-10T02:02:57.146Z,15.24
2019-06-10T02:05:23.106Z,15.29
2019-06-10T02:07:48.971Z,15.24
2019-06-10T02:10:17.150Z,15.26
2019-06-10T02:12:42.726Z,15.22
2019-06-10T02:15:10.062Z,15.22
2019-06-10T02:17:36.641Z,15.08
2019-06-10T02:20:05.681Z,15.11
2019-06-10T02:22:31.899Z,15.07
2019-06-10T02:24:57.905Z,15.07
2019-06-10T02:27:23.771Z,15.08
2019-06-10T02:29:50.706Z,14.92
2019-06-10T02:32:21.127Z,14.93
2019-06-10T02:35:01.168Z,14.98
2019-06-10T02:37:15.616Z,15.00
2019-06-10T02:39:43.749Z,15.06
2019-06-10T02:42:09.680Z,14.85
2019-06-10T02:44:37.970Z,14.85
2019-06-10T02:47:03.997Z,14.79
2019-06-10T02:49:51.519Z,14.74
2019-06-10T02:51:57.643Z,14.67
2019-06-10T02:54:29.237Z,14.67
2019-06-10T02:56:53.694Z,14.64
2019-06-10T02:59:21.765Z,14.65
2019-06-10T03:01:46.876Z,14.62
2019-06-10T03:04:13.808Z,14.62
2019-06-10T03:06:41.601Z,14.58
2019-06-10T03:09:07.677Z,14.58
2019-06-10T03:11:37.181Z,14.58
2019-06-10T03:14:02.599Z,14.62
2019-06-10T03:16:32.750Z,14.75
2019-06-10T03:18:58.193Z,14.69
2019-06-10T03:21:25.848Z,14.54
2019-06-10T03:23:53.149Z,14.49
2019-06-10T03:26:19.283Z,14.49
2019-06-10T03:28:45.158Z,14.46
2019-06-10T03:31:15.230Z,14.38
2019-06-10T03:33:42.116Z,14.47
2019-06-10T03:36:06.539Z,14.37
2019-06-10T03:38:32.764Z,14.38
2019-06-10T03:40:58.682Z,14.37
2019-06-10T03:43:26.334Z,14.45
2019-06-10T03:45:53.168Z,14.65
2019-06-10T03:48:19.145Z,14.43
2019-06-10T03:50:45.154Z,14.36
2019-06-10T03:53:12.895Z,14.30
2019-06-10T03:55:38.802Z,14.21
2019-06-10T03:58:07.515Z,14.35
2019-06-10T04:00:36.726Z,14.39
2019-06-10T04:03:02.765Z,14.48
2019-06-10T04:05:28.956Z,14.42
2019-06-10T04:07:54.836Z,14.22
2019-06-10T04:10:23.976Z,14.34
2019-06-10T04:12:48.500Z,14.31
2019-06-10T04:15:14.560Z,14.41
2019-06-10T04:17:42.618Z,14.51
2019-06-10T04:20:12.377Z,14.56
2019-06-10T04:22:36.576Z,14.46
2019-06-10T04:25:04.138Z,14.38
2019-06-10T04:27:29.998Z,14.44
2019-06-10T04:29:56.068Z,14.41
2019-06-10T04:32:23.150Z,14.51
2019-06-10T04:34:49.691Z,14.49
2019-06-10T04:37:15.627Z,14.47
2019-06-10T04:39:42.801Z,14.53
2019-06-10T04:42:08.683Z,14.51
2019-06-10T04:44:34.544Z,14.31
2019-06-10T04:47:02.542Z,14.50
2019-06-10T04:49:28.660Z,14.42
2019-06-10T04:51:55.555Z,14.30
2019-06-10T04:54:23.849Z,14.25
2019-06-10T04:56:49.218Z,14.46
2019-06-10T04:59:15.076Z,14.51
2019-06-10T05:01:42.606Z,14.42
2019-06-10T05:04:08.628Z,14.20
2019-06-10T05:06:34.502Z,14.13
2019-06-10T05:09:00.400Z,14.39
2019-06-10T05:11:27.358Z,14.36
2019-06-10T05:13:54.140Z,14.32
2019-06-10T05:16:23.420Z,14.37
2019-06-10T05:18:47.760Z,14.36
2019-06-10T05:21:13.619Z,14.38
2019-06-10T05:23:39.479Z,14.65
2019-06-10T05:26:05.353Z,14.94
2019-06-10T05:28:33.863Z,14.93
2019-06-10T05:30:58.981Z,15.16
2019-06-10T05:33:26.002Z,15.50
2019-06-10T05:35:52.980Z,15.47
2019-06-10T05:38:18.982Z,15.71
2019-06-10T05:40:44.902Z,15.60
2019-06-10T05:43:12.904Z,15.83
2019-06-10T05:45:38.522Z,15.99
2019-06-10T05:48:04.429Z,16.37
2019-06-10T05:50:31.183Z,16.24
2019-06-10T05:52:58.113Z,16.27
2019-06-10T05:55:24.364Z,16.27
2019-06-10T05:57:53.280Z,16.56
2019-06-10T06:00:19.194Z,17.11
2019-06-10T06:02:45.054Z,17.30
2019-06-10T06:05:12.837Z,17.27
2019-06-10T06:07:38.821Z,17.28
2019-06-10T06:10:06.881Z,17.47
2019-06-10T06:12:34.516Z,17.67
2019-06-10T06:15:02.364Z,17.78
2019-06-10T06:17:28.383Z,18.17
2019-06-10T06:19:54.239Z,18.52
2019-06-10T06:22:22.145Z,18.51
2019-06-10T06:24:47.885Z,18.83
2019-06-10T06:27:13.754Z,18.91
2019-06-10T06:29:39.619Z,18.84
2019-06-10T06:32:05.518Z,18.68
2019-06-10T06:34:33.689Z,18.66
2019-06-10T06:36:59.148Z,18.53
2019-06-10T06:39:25.019Z,18.88
2019-06-10T06:41:52.831Z,19.40
2019-06-10T06:44:18.640Z,18.96
2019-06-10T06:46:44.524Z,19.13
2019-06-10T06:49:12.819Z,18.26
2019-06-10T06:51:54.047Z,17.57
2019-06-10T06:54:06.057Z,17.71
2019-06-10T06:56:35.637Z,17.36
2019-06-10T06:59:02.385Z,17.59
2019-06-10T07:01:27.747Z,17.84
2019-06-10T07:03:53.831Z,17.35
2019-06-10T07:06:22.950Z,17.33
2019-06-10T07:09:03.371Z,18.03
2019-06-10T07:11:17.305Z,18.71
2019-06-10T07:13:45.577Z,19.10
2019-06-10T07:16:13.170Z,19.61
2019-06-10T07:18:43.527Z,20.19
2019-06-10T07:21:06.578Z,20.01
2019-06-10T07:23:35.464Z,20.82
2019-06-10T07:26:02.295Z,20.78
2019-06-10T07:28:28.002Z,20.50
2019-06-10T07:30:55.320Z,20.31
2019-06-10T07:33:22.689Z,20.77
2019-06-10T07:35:48.705Z,21.05
2019-06-10T07:38:14.575Z,20.53
2019-06-10T07:40:45.247Z,20.96
2019-06-10T07:43:08.317Z,20.56
2019-06-10T07:45:37.766Z,21.21
2019-06-10T07:48:02.856Z,21.43
2019-06-10T07:50:28.810Z,21.37
2019-06-10T07:52:54.759Z,21.71
2019-06-10T07:55:22.203Z,21.62
2019-06-10T07:57:48.122Z,21.73
2019-06-10T08:00:14.773Z,22.26
2019-06-10T08:02:44.230Z,22.57
2019-06-10T08:05:08.911Z,21.82
2019-06-10T08:07:35.240Z,22.14
2019-06-10T08:10:03.629Z,22.14
2019-06-10T08:12:29.500Z,22.62
2019-06-10T08:14:55.354Z,22.51
2019-06-10T08:17:22.406Z,22.00
2019-06-10T08:19:50.880Z,22.09
2019-06-10T08:22:29.933Z,21.68
2019-06-10T08:24:45.364Z,21.23
2019-06-10T08:27:12.084Z,21.50
2019-06-10T08:29:38.633Z,21.72
2019-06-10T08:32:04.689Z,22.25
2019-06-10T08:34:32.800Z,22.89
2019-06-10T08:36:58.326Z,22.43
2019-06-10T08:39:24.295Z,21.49
2019-06-10T08:41:52.674Z,21.91
2019-06-10T08:44:18.120Z,22.11
2019-06-10T08:46:46.523Z,22.11
2019-06-10T08:49:12.638Z,22.32
2019-06-10T08:51:39.655Z,21.98
2019-06-10T08:54:05.696Z,21.98
2019-06-10T08:56:32.819Z,22.52
2019-06-10T08:58:59.141Z,22.34
2019-06-10T09:01:25.113Z,22.48
2019-06-10T09:03:53.470Z,22.39
2019-06-10T09:06:18.759Z,21.74
2019-06-10T09:08:47.991Z,21.97
2019-06-10T09:11:13.141Z,21.97
2019-06-10T09:13:39.607Z,22.43
2019-06-10T09:16:15.628Z,22.08
2019-06-10T09:18:34.792Z,22.08
2019-06-10T09:21:02.293Z,22.31
2019-06-10T09:23:28.360Z,22.08
2019-06-10T09:25:57.289Z,22.26
2019-06-10T09:28:23.470Z,22.76
2019-06-10T09:30:56.167Z,22.38
2019-06-10T09:33:17.241Z,21.95
2019-06-10T09:35:46.149Z,21.86
2019-06-10T09:38:10.875Z,21.47
2019-06-10T09:40:48.649Z,21.76
2019-06-10T09:43:12.862Z,21.83
2019-06-10T09:45:40.874Z,22.14
2019-06-10T09:48:06.771Z,21.91
2019-06-10T09:50:41.214Z,22.20
2019-06-10T09:53:07.075Z,21.91
2019-06-10T09:55:33.012Z,21.94
2019-06-10T09:58:00.079Z,22.18
2019-06-10T10:00:42.204Z,22.58
2019-06-10T10:03:08.142Z,22.28
2019-06-10T10:05:34.043Z,22.19
2019-06-10T10:08:00.111Z,22.86
2019-06-10T10:10:37.462Z,22.34
2019-06-10T10:13:07.105Z,22.54
2019-06-10T10:15:34.585Z,22.49
2019-06-10T10:18:02.602Z,22.12
2019-06-10T10:20:28.483Z,22.59
2019-06-10T10:22:55.519Z,22.43
2019-06-10T10:25:23.530Z,22.73
2019-06-10T10:27:51.420Z,22.79
2019-06-10T10:30:24.216Z,22.94
2019-06-10T10:32:50.481Z,23.08
2019-06-10T10:35:16.364Z,22.80
2019-06-10T10:37:42.422Z,22.80
2019-06-10T10:40:08.486Z,22.41
2019-06-10T10:42:45.549Z,22.51
2019-06-10T10:45:04.840Z,22.14
2019-06-10T10:47:33.576Z,21.75
2019-06-10T10:49:58.510Z,21.95
2019-06-10T10:52:24.364Z,22.36
2019-06-10T10:54:51.875Z,21.96
2019-06-10T10:57:18.014Z,22.43
2019-06-10T10:59:45.108Z,22.42
2019-06-10T11:02:12.695Z,22.74
2019-06-10T11:04:44.155Z,22.77
2019-06-10T11:07:12.825Z,22.28
2019-06-10T11:09:37.989Z,22.25
2019-06-10T11:12:03.862Z,22.50
2019-06-10T11:14:30.126Z,22.53
2019-06-10T11:16:58.461Z,22.42
2019-06-10T11:19:23.877Z,21.94
2019-06-10T11:21:49.744Z,22.05
2019-06-10T11:24:32.481Z,22.17
2019-06-10T11:26:43.402Z,22.52
2019-06-10T11:29:09.239Z,22.33
2019-06-10T11:31:35.113Z,22.09
2019-06-10T11:34:02.983Z,21.87
2019-06-10T11:36:28.789Z,22.00
2019-06-10T11:38:56.744Z,21.74
2019-06-10T11:41:23.619Z,22.07
2019-06-10T11:43:51.175Z,22.11
2019-06-10T11:46:17.512Z,22.03
2019-06-10T11:48:44.404Z,22.06
2019-06-10T11:51:12.719Z,22.25
2019-06-10T11:53:38.236Z,22.06
2019-06-10T11:56:04.099Z,21.95
2019-06-10T11:58:29.999Z,21.91
2019-06-10T12:00:58.784Z,21.89
2019-06-10T12:03:23.575Z,22.07
2019-06-10T12:05:53.400Z,21.90
2019-06-10T12:08:17.220Z,22.22
2019-06-10T12:10:43.470Z,22.50
2019-06-10T12:13:10.274Z,22.14
2019-06-10T12:18:03.836Z,22.09
2019-06-10T12:20:28.398Z,21.86
2019-06-10T12:22:57.911Z,21.92
2019-06-10T12:25:32.578Z,22.23
2019-06-10T12:27:50.447Z,22.28
2019-06-10T12:30:17.206Z,22.38
2019-06-10T12:32:43.073Z,22.37
2019-06-10T12:35:13.528Z,22.64
2019-06-10T12:37:38.543Z,22.10
2019-06-10T12:40:09.215Z,22.02
2019-06-10T12:42:35.093Z,22.11
2019-06-10T12:45:05.324Z,22.38
2019-06-10T12:47:28.867Z,22.31
2019-06-10T12:49:56.163Z,22.60
2019-06-10T12:52:22.966Z,22.54
2019-06-10T12:54:48.875Z,22.57
2019-06-10T12:57:16.466Z,22.39
2019-06-10T12:59:42.999Z,22.29
2019-06-10T13:02:18.987Z,22.48
2019-06-10T13:04:37.538Z,22.55
2019-06-10T13:07:05.735Z,22.77
2019-06-10T13:09:32.870Z,22.79
2019-06-10T13:11:59.808Z,23.01
2019-06-10T13:14:25.701Z,22.98
2019-06-10T13:16:52.619Z,22.97
2019-06-10T13:19:18.741Z,23.31
2019-06-10T13:21:44.618Z,23.32
2019-06-10T13:24:12.901Z,23.13
2019-06-10T13:26:38.250Z,23.07
2019-06-10T13:29:07.007Z,22.97
2019-06-10T13:31:33.664Z,22.86
2019-06-10T13:34:05.050Z,22.93
2019-06-10T13:36:27.503Z,22.85
2019-06-10T13:38:53.437Z,22.96
2019-06-10T13:41:19.246Z,23.27
2019-06-10T13:43:45.113Z,23.09
2019-06-10T13:46:11.176Z,23.06
2019-06-10T13:48:37.037Z,23.36
2019-06-10T13:51:08.266Z,23.34
2019-06-10T13:53:30.894Z,23.34
2019-06-10T13:56:14.677Z,23.45
2019-06-10T13:58:25.085Z,23.02
2019-06-10T14:00:53.648Z,23.17
2019-06-10T14:03:18.851Z,23.23
2019-06-10T14:05:45.237Z,23.47
2019-06-10T14:08:15.078Z,23.61
2019-06-10T14:10:39.060Z,23.71
2019-06-10T14:13:10.571Z,23.53
2019-06-10T14:15:35.985Z,23.27
2019-06-10T14:18:05.163Z,23.38
2019-06-10T14:20:29.623Z,23.43
2019-06-10T14:22:55.478Z,23.27
2019-06-10T14:25:23.295Z,23.29
2019-06-10T14:27:49.102Z,23.36
2019-06-10T14:30:16.158Z,23.29
2019-06-10T14:32:42.616Z,23.07
2019-06-10T14:35:10.885Z,23.31
2019-06-10T14:37:39.351Z,23.41
2019-06-10T14:40:07.065Z,23.25
2019-06-10T14:42:33.319Z,23.26
2019-06-10T14:44:59.170Z,23.23
2019-06-10T14:47:25.021Z,23.13
2019-06-10T14:49:52.998Z,22.97
2019-06-10T14:52:18.650Z,22.87
2019-06-10T14:54:48.506Z,22.71
2019-06-10T14:57:15.485Z,22.71
2019-06-10T14:59:42.622Z,22.46
2019-06-10T15:02:09.762Z,22.47
2019-06-10T15:04:36.239Z,22.53
2019-06-10T15:07:03.348Z,22.47
2019-06-10T15:09:29.774Z,22.15
2019-06-10T15:11:55.650Z,22.19
2019-06-10T15:14:23.297Z,22.22
2019-06-10T15:16:49.434Z,21.89
2019-06-10T15:19:21.913Z,22.02
2019-06-10T15:21:43.501Z,21.98
2019-06-10T15:24:09.885Z,21.92
2019-06-10T15:26:35.817Z,22.05
2019-06-10T15:29:02.728Z,21.87
2019-06-10T15:31:28.865Z,21.75
2019-06-10T15:33:54.732Z,21.85
2019-06-10T15:36:20.604Z,21.72
2019-06-10T15:38:46.474Z,21.73
2019-06-10T15:41:16.056Z,21.84
2019-06-10T15:43:42.248Z,21.73
2019-06-10T15:46:07.902Z,21.77
2019-06-10T15:48:33.772Z,21.77
2019-06-10T15:50:59.633Z,21.70
2019-06-10T15:53:25.998Z,21.61
2019-06-10T15:58:21.136Z,21.89
2019-06-10T16:00:47.579Z,21.97
2019-06-10T16:03:15.878Z,21.90
2019-06-10T16:05:42.741Z,22.01
2019-06-10T16:08:08.677Z,22.02
2019-06-10T16:10:34.537Z,21.91
2019-06-10T16:13:03.228Z,21.97
2019-06-10T16:15:28.285Z,21.93
2019-06-10T16:17:54.153Z,21.97
2019-06-10T16:20:21.367Z,21.91
2019-06-10T16:22:52.343Z,21.90
2019-06-10T16:25:18.372Z,21.69
2019-06-10T16:27:50.731Z,21.67
2019-06-10T16:30:13.117Z,21.66
2019-06-10T16:32:40.049Z,21.64
2019-06-10T16:35:06.394Z,21.70
2019-06-10T16:37:32.770Z,21.49
2019-06-10T16:39:58.737Z,21.29
2019-06-10T16:42:26.185Z,21.30
2019-06-10T16:44:52.836Z,21.24
2019-06-10T16:47:19.102Z,21.30
2019-06-10T16:49:45.121Z,21.30
2019-06-10T16:52:12.143Z,21.34
2019-06-10T16:54:38.128Z,21.36
2019-06-10T16:57:04.034Z,21.38
2019-06-10T16:59:30.834Z,21.36
2019-06-10T17:01:57.686Z,21.38
2019-06-10T17:04:24.594Z,21.35
2019-06-10T17:06:52.595Z,21.43
2019-06-10T17:09:18.622Z,21.39
2019-06-10T17:11:44.454Z,21.35
2019-06-10T17:14:12.499Z,21.31
2019-06-10T17:16:40.577Z,21.16
2019-06-10T17:19:05.877Z,21.23
2019-06-10T17:21:34.595Z,21.24
2019-06-10T17:24:03.258Z,21.15
2019-06-10T17:26:33.461Z,21.05
2019-06-10T17:28:55.946Z,21.01
2019-06-10T17:31:25.739Z,21.06
2019-06-10T17:33:49.580Z,21.00
2019-06-10T17:36:15.536Z,20.95
2019-06-10T17:38:42.990Z,20.93
2019-06-10T17:41:09.563Z,20.93
2019-06-10T17:43:35.421Z,20.85
2019-06-10T17:46:03.401Z,20.84
2019-06-10T17:48:29.279Z,20.71
2019-06-10T17:50:55.448Z,20.73
2019-06-10T17:53:22.258Z,20.78
2019-06-10T17:55:48.379Z,20.82
2019-06-10T17:58:14.247Z,20.77
2019-06-10T18:00:42.235Z,20.75
2019-06-10T18:03:07.867Z,20.76
2019-06-10T18:05:33.740Z,20.56
2019-06-10T18:08:02.163Z,20.55
2019-06-10T18:10:27.722Z,20.62
2019-06-10T18:12:53.673Z,20.65
2019-06-10T18:15:22.083Z,20.51
2019-06-10T18:17:47.431Z,20.44
2019-06-10T18:20:15.420Z,20.50
2019-06-10T18:22:41.388Z,20.46
2019-06-10T18:25:07.352Z,20.32
2019-06-10T18:27:34.107Z,20.16
2019-06-10T18:30:02.486Z,20.06
2019-06-10T18:32:29.704Z,20.18
2019-06-10T18:34:56.615Z,20.07
2019-06-10T18:37:22.823Z,19.90
2019-06-10T18:39:48.814Z,19.99
2019-06-10T18:42:14.708Z,19.79
2019-06-10T18:44:40.547Z,19.61
2019-06-10T18:47:06.394Z,19.79
2019-06-10T18:49:34.027Z,19.52
2019-06-10T18:52:00.030Z,19.51
2019-06-10T18:54:25.881Z,19.43
2019-06-10T18:56:52.610Z,19.52
2019-06-10T18:59:21.295Z,19.32
2019-06-10T19:01:46.303Z,18.99
2019-06-10T19:04:12.980Z,19.09
2019-06-10T19:06:39.888Z,19.07
2019-06-10T19:09:06.810Z,18.96
2019-06-10T19:11:34.119Z,18.85
2019-06-10T19:14:03.164Z,18.64
2019-06-10T19:16:29.672Z,18.62
2019-06-10T19:18:55.614Z,17.89
2019-06-10T19:21:21.486Z,17.49
2019-06-10T19:23:47.592Z,17.23
2019-06-10T19:26:13.885Z,17.05
2019-06-10T19:28:41.240Z,16.80
2019-06-10T19:31:07.723Z,16.71
2019-06-10T19:33:35.737Z,16.95
2019-06-10T19:36:02.227Z,16.52
2019-06-10T19:38:28.310Z,16.43
2019-06-10T19:40:54.288Z,16.48
2019-06-10T19:43:20.292Z,16.35
2019-06-10T19:45:46.900Z,16.44
2019-06-10T19:48:12.938Z,16.35
2019-06-10T19:50:39.449Z,16.51
2019-06-10T19:53:06.615Z,16.34
2019-06-10T19:55:33.723Z,16.30
2019-06-10T19:58:03.483Z,16.31
2019-06-10T20:00:28.051Z,16.19
2019-06-10T20:02:53.927Z,16.19
2019-06-10T20:05:19.873Z,16.32
2019-06-10T20:07:50.101Z,16.32
2019-06-10T20:10:13.904Z,16.48
2019-06-10T20:12:41.050Z,16.39
2019-06-10T20:15:24.326Z,16.35
2019-06-10T20:17:52.545Z,16.28
2019-06-10T20:20:19.118Z,16.22
2019-06-10T20:22:46.669Z,16.25
2019-06-10T20:25:14.398Z,16.31
2019-06-10T20:27:42.836Z,16.28
2019-06-10T20:30:21.596Z,16.40
2019-06-10T20:32:37.148Z,16.24
2019-06-10T20:35:05.003Z,16.23
2019-06-10T20:37:32.645Z,16.21
2019-06-10T20:39:58.502Z,16.12
2019-06-10T20:42:24.355Z,16.15
2019-06-10T20:44:50.226Z,16.16
2019-06-10T20:47:16.082Z,16.02
2019-06-10T20:49:44.556Z,16.03
2019-06-10T20:52:12.331Z,15.97
2019-06-10T20:54:38.261Z,15.94
2019-06-10T20:57:04.392Z,16.16
2019-06-10T20:59:33.097Z,16.56
2019-06-10T21:01:57.975Z,16.74
2019-06-10T21:04:23.837Z,16.89
2019-06-10T21:06:53.145Z,16.95
2019-06-10T21:09:22.436Z,16.97
2019-06-10T21:11:48.593Z,16.61
2019-06-10T21:14:15.680Z,16.22
2019-06-10T21:16:42.024Z,16.02
2019-06-10T21:19:08.031Z,16.15
2019-06-10T21:21:33.892Z,16.44
2019-06-10T21:24:02.078Z,16.62
2019-06-10T21:26:27.571Z,16.68
2019-06-10T21:28:55.057Z,16.75
2019-06-10T21:31:21.225Z,16.70
2019-06-10T21:33:49.074Z,16.67
2019-06-10T21:36:14.875Z,16.58
2019-06-10T21:38:43.870Z,16.62
2019-06-10T21:41:08.498Z,16.68
2019-06-10T21:43:34.364Z,16.53
2019-06-10T21:46:00.239Z,16.63
2019-06-10T21:48:26.105Z,16.64
2019-06-10T21:50:55.811Z,16.29
2019-06-10T21:53:22.168Z,15.95
2019-06-10T21:55:48.699Z,15.78
2019-06-10T21:58:14.635Z,15.80
2019-06-10T22:00:55.590Z,16.21
2019-06-10T22:03:12.873Z,16.42
2019-06-10T22:05:38.727Z,16.57
2019-06-10T22:08:04.612Z,16.58
2019-06-10T22:10:30.463Z,16.55
2019-06-10T22:12:56.335Z,16.50
2019-06-10T22:15:22.632Z,16.44
2019-06-10T22:17:48.542Z,16.47
2019-06-10T22:20:14.495Z,16.48
2019-06-10T22:22:42.706Z,16.23
2019-06-10T22:25:08.432Z,16.39
2019-06-10T22:27:34.278Z,16.34
2019-06-10T22:30:02.710Z,16.34
2019-06-10T22:32:27.937Z,16.41
2019-06-10T22:34:55.509Z,16.46
2019-06-10T22:37:23.668Z,16.36
2019-06-10T22:39:50.034Z,16.31
2019-06-10T22:42:15.880Z,16.39
2019-06-10T22:44:42.377Z,16.35
2019-06-10T22:47:08.436Z,16.41
2019-06-10T22:49:34.285Z,16.41
2019-06-10T22:52:00.436Z,16.19
2019-06-10T22:54:26.472Z,16.29
2019-06-10T22:56:56.226Z,16.36
2019-06-10T22:59:20.099Z,16.38
2019-06-10T23:01:45.971Z,16.43
2019-06-10T23:04:13.494Z,16.43
2019-06-10T23:06:39.491Z,16.37
2019-06-10T23:09:05.651Z,16.36
2019-06-10T23:11:32.305Z,16.30
2019-06-10T23:13:59.564Z,16.33
2019-06-10T23:16:25.511Z,16.33
2019-06-10T23:18:53.592Z,16.38
2019-06-10T23:21:19.126Z,16.35
2019-06-10T23:23:44.984Z,16.17
2019-06-10T23:26:12.957Z,16.26
2019-06-10T23:28:38.605Z,16.29
2019-06-10T23:31:05.457Z,16.31
2019-06-10T23:33:32.407Z,16.30
2019-06-10T23:35:58.756Z,16.29
2019-06-10T23:38:24.670Z,16.33
2019-06-10T23:40:52.514Z,16.27
2019-06-10T23:43:18.962Z,16.29
2019-06-10T23:45:44.837Z,16.22
2019-06-10T23:48:13.185Z,16.17
2019-06-10T23:50:38.475Z,16.17
2019-06-10T23:53:07.539Z,15.99
2019-06-10T23:55:32.095Z,16.13
2019-06-10T23:57:58.366Z,16.15
